sensor_id;sensor_type;location;lat;lon;timestamp;P1;durP1;ratioP1;P2;durP2;ratioP2
74791;SDS011;63319;46.046;17.802;2024-02-26T00:02:13;35.67;;;17.43;;
74791;SDS011;63319;46.046;17.802;2024-02-26T00:05:16;35.20;;;18.10;;
74791;SDS011;63319;46.046;17.802;2024-02-26T00:08:20;29.65;;;16.10;;
74791;SDS011;63319;46.046;17.802;2024-02-26T00:11:23;32.70;;;16.52;;
74791;SDS011;63319;46.046;17.802;2024-02-26T00:14:26;32.55;;;18.27;;
74791;SDS011;63319;46.046;17.802;2024-02-26T00:17:29;35.13;;;17.75;;
74791;SDS011;63319;46.046;17.802;2024-02-26T00:20:31;34.33;;;18.73;;
74791;SDS011;63319;46.046;17.802;2024-02-26T00:23:35;35.43;;;18.80;;
74791;SDS011;63319;46.046;17.802;2024-02-26T00:26:38;33.88;;;17.33;;
74791;SDS011;63319;46.046;17.802;2024-02-26T00:29:40;39.20;;;19.60;;
74791;SDS011;63319;46.046;17.802;2024-02-26T00:32:44;33.77;;;17.80;;
74791;SDS011;63319;46.046;17.802;2024-02-26T00:35:47;34.78;;;18.27;;
74791;SDS011;63319;46.046;17.802;2024-02-26T00:38:50;31.75;;;17.92;;
74791;SDS011;63319;46.046;17.802;2024-02-26T00:41:53;37.15;;;17.20;;
74791;SDS011;63319;46.046;17.802;2024-02-26T00:44:56;37.65;;;19.40;;
74791;SDS011;63319;46.046;17.802;2024-02-26T00:48:00;35.08;;;19.40;;
74791;SDS011;63319;46.046;17.802;2024-02-26T00:51:07;37.45;;;18.63;;
74791;SDS011;63319;46.046;17.802;2024-02-26T00:54:10;38.33;;;19.87;;
74791;SDS011;63319;46.046;17.802;2024-02-26T00:57:13;36.67;;;18.80;;
74791;SDS011;63319;46.046;17.802;2024-02-26T01:00:17;35.97;;;19.08;;
74791;SDS011;63319;46.046;17.802;2024-02-26T01:03:20;41.83;;;19.07;;
74791;SDS011;63319;46.046;17.802;2024-02-26T01:06:23;32.72;;;16.45;;
74791;SDS011;63319;46.046;17.802;2024-02-26T01:09:26;32.05;;;17.35;;
74791;SDS011;63319;46.046;17.802;2024-02-26T01:12:29;46.10;;;23.20;;
74791;SDS011;63319;46.046;17.802;2024-02-26T01:15:33;57.42;;;31.33;;
74791;SDS011;63319;46.046;17.802;2024-02-26T01:18:36;51.53;;;28.58;;
74791;SDS011;63319;46.046;17.802;2024-02-26T01:21:39;46.38;;;22.92;;
74791;SDS011;63319;46.046;17.802;2024-02-26T01:24:42;41.70;;;21.33;;
74791;SDS011;63319;46.046;17.802;2024-02-26T01:27:45;38.00;;;19.45;;
74791;SDS011;63319;46.046;17.802;2024-02-26T01:30:48;36.58;;;19.77;;
74791;SDS011;63319;46.046;17.802;2024-02-26T01:33:52;35.37;;;19.50;;
74791;SDS011;63319;46.046;17.802;2024-02-26T01:36:55;32.20;;;17.02;;
74791;SDS011;63319;46.046;17.802;2024-02-26T01:39:58;31.00;;;16.23;;
74791;SDS011;63319;46.046;17.802;2024-02-26T01:43:02;31.75;;;16.13;;
74791;SDS011;63319;46.046;17.802;2024-02-26T01:46:04;30.23;;;16.10;;
74791;SDS011;63319;46.046;17.802;2024-02-26T01:49:11;33.83;;;18.20;;
74791;SDS011;63319;46.046;17.802;2024-02-26T01:52:15;33.47;;;17.55;;
74791;SDS011;63319;46.046;17.802;2024-02-26T01:55:19;35.40;;;19.03;;
74791;SDS011;63319;46.046;17.802;2024-02-26T01:58:23;34.67;;;18.08;;
74791;SDS011;63319;46.046;17.802;2024-02-26T02:01:26;38.40;;;18.95;;
74791;SDS011;63319;46.046;17.802;2024-02-26T02:04:31;37.40;;;19.77;;
74791;SDS011;63319;46.046;17.802;2024-02-26T02:07:35;39.40;;;21.35;;
74791;SDS011;63319;46.046;17.802;2024-02-26T02:10:38;47.30;;;21.80;;
74791;SDS011;63319;46.046;17.802;2024-02-26T02:13:42;43.50;;;21.30;;
74791;SDS011;63319;46.046;17.802;2024-02-26T02:16:44;46.33;;;22.10;;
74791;SDS011;63319;46.046;17.802;2024-02-26T02:19:48;43.47;;;21.05;;
74791;SDS011;63319;46.046;17.802;2024-02-26T02:22:51;46.35;;;22.50;;
74791;SDS011;63319;46.046;17.802;2024-02-26T02:25:54;54.27;;;23.87;;
74791;SDS011;63319;46.046;17.802;2024-02-26T02:29:00;50.95;;;23.15;;
74791;SDS011;63319;46.046;17.802;2024-02-26T02:32:03;47.10;;;22.70;;
74791;SDS011;63319;46.046;17.802;2024-02-26T02:35:07;51.60;;;23.73;;
74791;SDS011;63319;46.046;17.802;2024-02-26T02:38:10;47.53;;;22.33;;
74791;SDS011;63319;46.046;17.802;2024-02-26T02:41:13;45.28;;;22.25;;
74791;SDS011;63319;46.046;17.802;2024-02-26T02:44:16;47.35;;;21.30;;
74791;SDS011;63319;46.046;17.802;2024-02-26T02:47:19;46.28;;;21.58;;
74791;SDS011;63319;46.046;17.802;2024-02-26T02:50:22;51.25;;;21.52;;
74791;SDS011;63319;46.046;17.802;2024-02-26T02:53:25;46.28;;;21.00;;
74791;SDS011;63319;46.046;17.802;2024-02-26T02:56:28;45.53;;;19.90;;
74791;SDS011;63319;46.046;17.802;2024-02-26T02:59:32;47.22;;;22.15;;
74791;SDS011;63319;46.046;17.802;2024-02-26T03:02:35;50.72;;;20.92;;
74791;SDS011;63319;46.046;17.802;2024-02-26T03:05:38;52.30;;;22.90;;
74791;SDS011;63319;46.046;17.802;2024-02-26T03:08:41;54.35;;;22.60;;
74791;SDS011;63319;46.046;17.802;2024-02-26T03:11:44;60.20;;;22.15;;
74791;SDS011;63319;46.046;17.802;2024-02-26T03:14:47;65.55;;;20.90;;
74791;SDS011;63319;46.046;17.802;2024-02-26T03:17:50;56.60;;;21.90;;
74791;SDS011;63319;46.046;17.802;2024-02-26T03:20:54;60.20;;;22.85;;
74791;SDS011;63319;46.046;17.802;2024-02-26T03:23:56;67.90;;;23.58;;
74791;SDS011;63319;46.046;17.802;2024-02-26T03:27:00;70.03;;;25.87;;
74791;SDS011;63319;46.046;17.802;2024-02-26T03:30:03;74.90;;;29.45;;
74791;SDS011;63319;46.046;17.802;2024-02-26T03:33:06;64.90;;;29.55;;
74791;SDS011;63319;46.046;17.802;2024-02-26T03:36:10;85.70;;;29.30;;
74791;SDS011;63319;46.046;17.802;2024-02-26T03:39:13;68.03;;;24.80;;
74791;SDS011;63319;46.046;17.802;2024-02-26T03:42:16;54.42;;;21.25;;
74791;SDS011;63319;46.046;17.802;2024-02-26T03:45:19;58.17;;;23.92;;
74791;SDS011;63319;46.046;17.802;2024-02-26T03:48:23;60.47;;;24.50;;
74791;SDS011;63319;46.046;17.802;2024-02-26T03:51:26;56.67;;;24.40;;
74791;SDS011;63319;46.046;17.802;2024-02-26T03:54:33;57.50;;;23.75;;
74791;SDS011;63319;46.046;17.802;2024-02-26T03:57:36;57.53;;;23.53;;
74791;SDS011;63319;46.046;17.802;2024-02-26T04:00:39;54.70;;;23.83;;
74791;SDS011;63319;46.046;17.802;2024-02-26T04:03:42;55.70;;;23.38;;
74791;SDS011;63319;46.046;17.802;2024-02-26T04:06:46;58.90;;;22.10;;
74791;SDS011;63319;46.046;17.802;2024-02-26T04:09:50;63.00;;;25.45;;
74791;SDS011;63319;46.046;17.802;2024-02-26T04:12:53;56.70;;;24.83;;
74791;SDS011;63319;46.046;17.802;2024-02-26T04:15:56;90.80;;;32.00;;
74791;SDS011;63319;46.046;17.802;2024-02-26T04:19:00;78.78;;;32.65;;
74791;SDS011;63319;46.046;17.802;2024-02-26T04:22:03;94.75;;;28.85;;
74791;SDS011;63319;46.046;17.802;2024-02-26T04:25:06;80.65;;;27.95;;
74791;SDS011;63319;46.046;17.802;2024-02-26T04:28:09;73.17;;;26.00;;
74791;SDS011;63319;46.046;17.802;2024-02-26T04:31:12;73.75;;;27.52;;
74791;SDS011;63319;46.046;17.802;2024-02-26T04:34:15;75.88;;;28.08;;
74791;SDS011;63319;46.046;17.802;2024-02-26T04:37:18;86.43;;;26.23;;
74791;SDS011;63319;46.046;17.802;2024-02-26T04:40:21;99.32;;;26.40;;
74791;SDS011;63319;46.046;17.802;2024-02-26T04:43:24;100.85;;;24.92;;
74791;SDS011;63319;46.046;17.802;2024-02-26T04:46:27;81.35;;;25.08;;
74791;SDS011;63319;46.046;17.802;2024-02-26T04:49:31;94.43;;;25.58;;
74791;SDS011;63319;46.046;17.802;2024-02-26T04:52:34;83.28;;;26.42;;
74791;SDS011;63319;46.046;17.802;2024-02-26T04:55:37;107.38;;;24.55;;
74791;SDS011;63319;46.046;17.802;2024-02-26T04:58:40;94.07;;;24.00;;
74791;SDS011;63319;46.046;17.802;2024-02-26T05:01:43;102.47;;;24.63;;
74791;SDS011;63319;46.046;17.802;2024-02-26T05:04:46;92.93;;;26.90;;
74791;SDS011;63319;46.046;17.802;2024-02-26T05:07:49;98.20;;;27.53;;
74791;SDS011;63319;46.046;17.802;2024-02-26T05:10:52;83.78;;;26.15;;
74791;SDS011;63319;46.046;17.802;2024-02-26T05:13:55;84.53;;;24.80;;
74791;SDS011;63319;46.046;17.802;2024-02-26T05:16:58;83.82;;;27.02;;
74791;SDS011;63319;46.046;17.802;2024-02-26T05:20:01;74.65;;;25.45;;
74791;SDS011;63319;46.046;17.802;2024-02-26T05:23:04;77.57;;;27.70;;
74791;SDS011;63319;46.046;17.802;2024-02-26T05:26:07;71.93;;;30.30;;
74791;SDS011;63319;46.046;17.802;2024-02-26T05:29:11;64.83;;;26.57;;
74791;SDS011;63319;46.046;17.802;2024-02-26T05:32:14;57.15;;;26.35;;
74791;SDS011;63319;46.046;17.802;2024-02-26T05:35:17;55.50;;;24.95;;
74791;SDS011;63319;46.046;17.802;2024-02-26T05:38:20;63.50;;;27.67;;
74791;SDS011;63319;46.046;17.802;2024-02-26T05:41:22;51.38;;;23.83;;
74791;SDS011;63319;46.046;17.802;2024-02-26T05:44:26;48.08;;;23.60;;
74791;SDS011;63319;46.046;17.802;2024-02-26T05:47:29;52.55;;;24.55;;
74791;SDS011;63319;46.046;17.802;2024-02-26T05:50:32;54.97;;;23.95;;
74791;SDS011;63319;46.046;17.802;2024-02-26T05:53:35;59.20;;;25.50;;
74791;SDS011;63319;46.046;17.802;2024-02-26T05:56:38;48.70;;;24.05;;
74791;SDS011;63319;46.046;17.802;2024-02-26T05:59:41;48.80;;;22.07;;
74791;SDS011;63319;46.046;17.802;2024-02-26T06:02:44;48.03;;;20.95;;
74791;SDS011;63319;46.046;17.802;2024-02-26T06:05:47;49.85;;;20.23;;
74791;SDS011;63319;46.046;17.802;2024-02-26T06:08:50;43.03;;;19.83;;
74791;SDS011;63319;46.046;17.802;2024-02-26T06:11:53;42.45;;;21.13;;
74791;SDS011;63319;46.046;17.802;2024-02-26T06:14:56;43.90;;;19.98;;
74791;SDS011;63319;46.046;17.802;2024-02-26T06:18:04;37.95;;;18.48;;
74791;SDS011;63319;46.046;17.802;2024-02-26T06:21:10;44.80;;;20.88;;
74791;SDS011;63319;46.046;17.802;2024-02-26T06:24:14;46.22;;;22.33;;
74791;SDS011;63319;46.046;17.802;2024-02-26T06:27:16;45.42;;;22.75;;
74791;SDS011;63319;46.046;17.802;2024-02-26T06:30:19;44.57;;;21.70;;
74791;SDS011;63319;46.046;17.802;2024-02-26T06:33:22;45.50;;;20.70;;
74791;SDS011;63319;46.046;17.802;2024-02-26T06:36:26;46.80;;;21.23;;
74791;SDS011;63319;46.046;17.802;2024-02-26T06:39:29;43.17;;;24.23;;
74791;SDS011;63319;46.046;17.802;2024-02-26T06:42:32;46.50;;;23.63;;
74791;SDS011;63319;46.046;17.802;2024-02-26T06:45:35;49.80;;;23.70;;
74791;SDS011;63319;46.046;17.802;2024-02-26T06:48:39;48.85;;;24.20;;
74791;SDS011;63319;46.046;17.802;2024-02-26T06:51:42;44.97;;;21.50;;
74791;SDS011;63319;46.046;17.802;2024-02-26T06:54:45;47.97;;;20.73;;
74791;SDS011;63319;46.046;17.802;2024-02-26T06:57:50;39.80;;;19.17;;
74791;SDS011;63319;46.046;17.802;2024-02-26T07:00:53;42.37;;;19.43;;
74791;SDS011;63319;46.046;17.802;2024-02-26T07:03:56;45.38;;;20.30;;
74791;SDS011;63319;46.046;17.802;2024-02-26T07:06:59;44.65;;;20.70;;
74791;SDS011;63319;46.046;17.802;2024-02-26T07:10:03;45.07;;;20.20;;
74791;SDS011;63319;46.046;17.802;2024-02-26T07:13:08;44.30;;;21.27;;
74791;SDS011;63319;46.046;17.802;2024-02-26T07:16:11;39.33;;;18.30;;
74791;SDS011;63319;46.046;17.802;2024-02-26T07:19:14;35.80;;;17.70;;
74791;SDS011;63319;46.046;17.802;2024-02-26T07:22:17;43.63;;;18.05;;
74791;SDS011;63319;46.046;17.802;2024-02-26T07:25:21;55.10;;;18.80;;
74791;SDS011;63319;46.046;17.802;2024-02-26T07:28:24;44.35;;;20.52;;
74791;SDS011;63319;46.046;17.802;2024-02-26T07:31:27;51.50;;;23.67;;
74791;SDS011;63319;46.046;17.802;2024-02-26T07:34:29;41.53;;;20.35;;
74791;SDS011;63319;46.046;17.802;2024-02-26T07:37:33;42.35;;;19.58;;
74791;SDS011;63319;46.046;17.802;2024-02-26T07:40:36;46.90;;;22.57;;
74791;SDS011;63319;46.046;17.802;2024-02-26T07:43:48;48.25;;;21.67;;
74791;SDS011;63319;46.046;17.802;2024-02-26T07:46:51;40.15;;;20.02;;
74791;SDS011;63319;46.046;17.802;2024-02-26T07:49:54;45.72;;;20.42;;
74791;SDS011;63319;46.046;17.802;2024-02-26T07:52:57;50.45;;;22.55;;
74791;SDS011;63319;46.046;17.802;2024-02-26T07:56:01;44.67;;;21.92;;
74791;SDS011;63319;46.046;17.802;2024-02-26T07:59:04;36.17;;;17.42;;
74791;SDS011;63319;46.046;17.802;2024-02-26T08:02:07;36.60;;;17.73;;
74791;SDS011;63319;46.046;17.802;2024-02-26T08:05:10;34.97;;;18.85;;
74791;SDS011;63319;46.046;17.802;2024-02-26T08:08:13;34.92;;;16.42;;
74791;SDS011;63319;46.046;17.802;2024-02-26T08:11:15;32.63;;;17.87;;
74791;SDS011;63319;46.046;17.802;2024-02-26T08:14:18;28.23;;;15.00;;
74791;SDS011;63319;46.046;17.802;2024-02-26T08:17:21;30.80;;;15.70;;
74791;SDS011;63319;46.046;17.802;2024-02-26T08:20:24;43.35;;;22.50;;
74791;SDS011;63319;46.046;17.802;2024-02-26T08:23:27;42.57;;;23.87;;
74791;SDS011;63319;46.046;17.802;2024-02-26T08:26:30;38.25;;;19.65;;
74791;SDS011;63319;46.046;17.802;2024-02-26T08:29:33;38.00;;;21.33;;
74791;SDS011;63319;46.046;17.802;2024-02-26T08:32:36;38.88;;;21.10;;
74791;SDS011;63319;46.046;17.802;2024-02-26T08:35:40;32.57;;;17.77;;
74791;SDS011;63319;46.046;17.802;2024-02-26T08:38:42;23.77;;;14.23;;
74791;SDS011;63319;46.046;17.802;2024-02-26T08:41:45;27.00;;;15.45;;
74791;SDS011;63319;46.046;17.802;2024-02-26T08:44:48;30.02;;;16.88;;
74791;SDS011;63319;46.046;17.802;2024-02-26T08:47:51;28.00;;;17.20;;
74791;SDS011;63319;46.046;17.802;2024-02-26T08:50:54;20.57;;;13.27;;
74791;SDS011;63319;46.046;17.802;2024-02-26T08:53:57;24.20;;;15.63;;
74791;SDS011;63319;46.046;17.802;2024-02-26T08:57:01;20.52;;;13.18;;
74791;SDS011;63319;46.046;17.802;2024-02-26T09:00:04;23.98;;;13.10;;
74791;SDS011;63319;46.046;17.802;2024-02-26T09:03:08;21.75;;;12.85;;
74791;SDS011;63319;46.046;17.802;2024-02-26T09:06:11;20.90;;;12.93;;
74791;SDS011;63319;46.046;17.802;2024-02-26T09:09:16;15.53;;;9.97;;
74791;SDS011;63319;46.046;17.802;2024-02-26T09:12:19;19.38;;;10.73;;
74791;SDS011;63319;46.046;17.802;2024-02-26T09:15:23;17.02;;;10.93;;
74791;SDS011;63319;46.046;17.802;2024-02-26T09:18:27;14.25;;;9.65;;
74791;SDS011;63319;46.046;17.802;2024-02-26T09:21:31;16.47;;;9.67;;
74791;SDS011;63319;46.046;17.802;2024-02-26T09:24:34;16.97;;;10.47;;
74791;SDS011;63319;46.046;17.802;2024-02-26T09:27:38;13.88;;;8.90;;
74791;SDS011;63319;46.046;17.802;2024-02-26T09:30:44;15.27;;;9.05;;
74791;SDS011;63319;46.046;17.802;2024-02-26T09:33:48;12.70;;;7.70;;
74791;SDS011;63319;46.046;17.802;2024-02-26T09:36:51;12.70;;;8.33;;
74791;SDS011;63319;46.046;17.802;2024-02-26T09:40:01;10.73;;;7.17;;
74791;SDS011;63319;46.046;17.802;2024-02-26T09:43:05;12.35;;;8.90;;
74791;SDS011;63319;46.046;17.802;2024-02-26T09:46:14;11.23;;;7.40;;
74791;SDS011;63319;46.046;17.802;2024-02-26T09:49:20;10.48;;;6.68;;
74791;SDS011;63319;46.046;17.802;2024-02-26T09:52:26;10.97;;;7.27;;
74791;SDS011;63319;46.046;17.802;2024-02-26T09:55:30;11.03;;;7.17;;
74791;SDS011;63319;46.046;17.802;2024-02-26T09:58:33;11.85;;;6.97;;
74791;SDS011;63319;46.046;17.802;2024-02-26T10:01:38;10.50;;;7.30;;
74791;SDS011;63319;46.046;17.802;2024-02-26T10:04:45;11.20;;;6.95;;
74791;SDS011;63319;46.046;17.802;2024-02-26T10:07:54;11.23;;;6.20;;
74791;SDS011;63319;46.046;17.802;2024-02-26T10:10:59;11.37;;;6.17;;
74791;SDS011;63319;46.046;17.802;2024-02-26T10:14:03;11.95;;;5.80;;
74791;SDS011;63319;46.046;17.802;2024-02-26T10:17:07;11.60;;;6.35;;
74791;SDS011;63319;46.046;17.802;2024-02-26T10:20:12;10.77;;;5.82;;
74791;SDS011;63319;46.046;17.802;2024-02-26T10:23:22;10.17;;;5.07;;
74791;SDS011;63319;46.046;17.802;2024-02-26T10:26:26;9.70;;;5.13;;
74791;SDS011;63319;46.046;17.802;2024-02-26T10:29:29;7.35;;;4.70;;
74791;SDS011;63319;46.046;17.802;2024-02-26T10:32:35;8.43;;;5.00;;
74791;SDS011;63319;46.046;17.802;2024-02-26T10:35:39;9.50;;;4.95;;
74791;SDS011;63319;46.046;17.802;2024-02-26T10:38:46;15.10;;;4.23;;
74791;SDS011;63319;46.046;17.802;2024-02-26T10:41:50;7.67;;;4.67;;
74791;SDS011;63319;46.046;17.802;2024-02-26T10:44:54;8.95;;;4.88;;
74791;SDS011;63319;46.046;17.802;2024-02-26T10:47:58;13.55;;;5.07;;
74791;SDS011;63319;46.046;17.802;2024-02-26T10:51:02;8.68;;;4.70;;
74791;SDS011;63319;46.046;17.802;2024-02-26T10:54:06;8.27;;;4.10;;
74791;SDS011;63319;46.046;17.802;2024-02-26T10:57:13;6.70;;;3.43;;
74791;SDS011;63319;46.046;17.802;2024-02-26T11:00:21;7.18;;;4.07;;
74791;SDS011;63319;46.046;17.802;2024-02-26T11:03:25;7.18;;;4.15;;
74791;SDS011;63319;46.046;17.802;2024-02-26T11:06:30;7.95;;;3.75;;
74791;SDS011;63319;46.046;17.802;2024-02-26T11:09:37;6.97;;;3.80;;
74791;SDS011;63319;46.046;17.802;2024-02-26T11:12:46;9.03;;;3.67;;
74791;SDS011;63319;46.046;17.802;2024-02-26T11:15:53;7.40;;;3.45;;
74791;SDS011;63319;46.046;17.802;2024-02-26T11:18:58;9.18;;;3.42;;
74791;SDS011;63319;46.046;17.802;2024-02-26T11:22:04;6.43;;;2.80;;
74791;SDS011;63319;46.046;17.802;2024-02-26T11:25:23;5.80;;;2.57;;
74791;SDS011;63319;46.046;17.802;2024-02-26T11:28:26;6.07;;;3.10;;
74791;SDS011;63319;46.046;17.802;2024-02-26T11:31:32;5.78;;;2.78;;
74791;SDS011;63319;46.046;17.802;2024-02-26T11:34:39;6.05;;;2.60;;
74791;SDS011;63319;46.046;17.802;2024-02-26T11:37:54;8.15;;;3.40;;
74791;SDS011;63319;46.046;17.802;2024-02-26T11:40:59;5.83;;;2.83;;
74791;SDS011;63319;46.046;17.802;2024-02-26T11:44:02;6.10;;;2.70;;
74791;SDS011;63319;46.046;17.802;2024-02-26T11:47:14;8.95;;;4.68;;
74791;SDS011;63319;46.046;17.802;2024-02-26T11:50:33;7.70;;;3.60;;
74791;SDS011;63319;46.046;17.802;2024-02-26T11:53:45;6.97;;;3.10;;
74791;SDS011;63319;46.046;17.802;2024-02-26T11:56:57;6.00;;;2.80;;
74791;SDS011;63319;46.046;17.802;2024-02-26T12:03:13;6.30;;;2.45;;
74791;SDS011;63319;46.046;17.802;2024-02-26T12:06:18;5.70;;;3.20;;
74791;SDS011;63319;46.046;17.802;2024-02-26T12:09:31;7.40;;;3.40;;
74791;SDS011;63319;46.046;17.802;2024-02-26T12:12:44;6.70;;;2.40;;
74791;SDS011;63319;46.046;17.802;2024-02-26T12:18:56;6.35;;;2.45;;
74791;SDS011;63319;46.046;17.802;2024-02-26T12:22:00;5.30;;;2.53;;
74791;SDS011;63319;46.046;17.802;2024-02-26T12:25:03;7.57;;;2.78;;
74791;SDS011;63319;46.046;17.802;2024-02-26T12:28:06;5.53;;;2.80;;
74791;SDS011;63319;46.046;17.802;2024-02-26T12:31:09;5.70;;;2.73;;
74791;SDS011;63319;46.046;17.802;2024-02-26T12:34:12;8.35;;;2.83;;
74791;SDS011;63319;46.046;17.802;2024-02-26T12:37:16;4.97;;;2.03;;
74791;SDS011;63319;46.046;17.802;2024-02-26T12:40:20;4.82;;;2.33;;
74791;SDS011;63319;46.046;17.802;2024-02-26T12:43:23;4.97;;;2.53;;
74791;SDS011;63319;46.046;17.802;2024-02-26T12:46:26;6.17;;;2.43;;
74791;SDS011;63319;46.046;17.802;2024-02-26T12:49:30;10.57;;;3.03;;
74791;SDS011;63319;46.046;17.802;2024-02-26T12:52:35;7.30;;;2.97;;
74791;SDS011;63319;46.046;17.802;2024-02-26T12:55:39;6.82;;;3.33;;
74791;SDS011;63319;46.046;17.802;2024-02-26T12:58:43;7.97;;;3.20;;
74791;SDS011;63319;46.046;17.802;2024-02-26T13:01:48;9.30;;;4.03;;
74791;SDS011;63319;46.046;17.802;2024-02-26T13:04:51;10.00;;;3.80;;
74791;SDS011;63319;46.046;17.802;2024-02-26T13:07:54;8.48;;;2.83;;
74791;SDS011;63319;46.046;17.802;2024-02-26T13:11:01;5.13;;;2.10;;
74791;SDS011;63319;46.046;17.802;2024-02-26T13:14:04;7.43;;;2.30;;
74791;SDS011;63319;46.046;17.802;2024-02-26T13:17:10;9.03;;;3.17;;
74791;SDS011;63319;46.046;17.802;2024-02-26T13:20:13;7.45;;;3.15;;
74791;SDS011;63319;46.046;17.802;2024-02-26T13:23:28;5.55;;;2.25;;
74791;SDS011;63319;46.046;17.802;2024-02-26T13:26:31;5.18;;;2.45;;
74791;SDS011;63319;46.046;17.802;2024-02-26T13:29:34;8.57;;;2.40;;
74791;SDS011;63319;46.046;17.802;2024-02-26T13:32:38;5.93;;;2.60;;
74791;SDS011;63319;46.046;17.802;2024-02-26T13:35:42;6.55;;;3.17;;
74791;SDS011;63319;46.046;17.802;2024-02-26T13:38:52;4.68;;;2.20;;
74791;SDS011;63319;46.046;17.802;2024-02-26T13:41:57;8.98;;;2.42;;
74791;SDS011;63319;46.046;17.802;2024-02-26T13:45:00;8.93;;;2.33;;
74791;SDS011;63319;46.046;17.802;2024-02-26T13:48:05;4.63;;;2.40;;
74791;SDS011;63319;46.046;17.802;2024-02-26T13:51:09;4.85;;;2.22;;
74791;SDS011;63319;46.046;17.802;2024-02-26T13:54:12;6.07;;;2.75;;
74791;SDS011;63319;46.046;17.802;2024-02-26T13:57:18;7.15;;;3.72;;
74791;SDS011;63319;46.046;17.802;2024-02-26T14:00:22;4.50;;;1.80;;
74791;SDS011;63319;46.046;17.802;2024-02-26T14:03:25;8.10;;;2.70;;
74791;SDS011;63319;46.046;17.802;2024-02-26T14:06:28;10.63;;;2.50;;
74791;SDS011;63319;46.046;17.802;2024-02-26T14:09:33;9.68;;;2.60;;
74791;SDS011;63319;46.046;17.802;2024-02-26T14:12:50;6.13;;;2.55;;
74791;SDS011;63319;46.046;17.802;2024-02-26T14:15:53;7.13;;;2.90;;
74791;SDS011;63319;46.046;17.802;2024-02-26T14:18:56;6.17;;;2.80;;
74791;SDS011;63319;46.046;17.802;2024-02-26T14:21:59;6.20;;;2.60;;
74791;SDS011;63319;46.046;17.802;2024-02-26T14:25:02;7.00;;;3.33;;
74791;SDS011;63319;46.046;17.802;2024-02-26T14:28:05;7.28;;;3.40;;
74791;SDS011;63319;46.046;17.802;2024-02-26T14:31:09;9.97;;;5.10;;
74791;SDS011;63319;46.046;17.802;2024-02-26T14:34:13;8.27;;;3.83;;
74791;SDS011;63319;46.046;17.802;2024-02-26T14:37:16;6.53;;;2.55;;
74791;SDS011;63319;46.046;17.802;2024-02-26T14:40:18;7.13;;;3.17;;
74791;SDS011;63319;46.046;17.802;2024-02-26T14:43:21;7.43;;;3.03;;
74791;SDS011;63319;46.046;17.802;2024-02-26T14:46:24;9.90;;;3.90;;
74791;SDS011;63319;46.046;17.802;2024-02-26T14:49:27;9.80;;;5.10;;
74791;SDS011;63319;46.046;17.802;2024-02-26T14:52:32;19.63;;;10.88;;
74791;SDS011;63319;46.046;17.802;2024-02-26T14:55:35;14.23;;;7.38;;
74791;SDS011;63319;46.046;17.802;2024-02-26T14:58:40;22.98;;;11.43;;
74791;SDS011;63319;46.046;17.802;2024-02-26T15:01:43;22.50;;;10.60;;
74791;SDS011;63319;46.046;17.802;2024-02-26T15:04:49;19.35;;;11.52;;
74791;SDS011;63319;46.046;17.802;2024-02-26T15:07:52;20.17;;;11.57;;
74791;SDS011;63319;46.046;17.802;2024-02-26T15:10:54;19.20;;;10.55;;
74791;SDS011;63319;46.046;17.802;2024-02-26T15:13:57;19.57;;;9.63;;
74791;SDS011;63319;46.046;17.802;2024-02-26T15:17:00;16.13;;;8.43;;
74791;SDS011;63319;46.046;17.802;2024-02-26T15:20:04;17.55;;;9.05;;
74791;SDS011;63319;46.046;17.802;2024-02-26T15:23:10;10.70;;;6.18;;
74791;SDS011;63319;46.046;17.802;2024-02-26T15:26:14;18.83;;;10.70;;
74791;SDS011;63319;46.046;17.802;2024-02-26T15:29:17;14.43;;;7.17;;
74791;SDS011;63319;46.046;17.802;2024-02-26T15:32:20;27.35;;;12.57;;
74791;SDS011;63319;46.046;17.802;2024-02-26T15:35:23;22.67;;;10.93;;
74791;SDS011;63319;46.046;17.802;2024-02-26T15:38:26;24.13;;;9.90;;
74791;SDS011;63319;46.046;17.802;2024-02-26T15:41:30;16.60;;;7.47;;
74791;SDS011;63319;46.046;17.802;2024-02-26T15:44:33;18.35;;;10.07;;
74791;SDS011;63319;46.046;17.802;2024-02-26T15:47:36;15.98;;;8.55;;
74791;SDS011;63319;46.046;17.802;2024-02-26T15:50:39;27.73;;;15.67;;
74791;SDS011;63319;46.046;17.802;2024-02-26T15:53:45;31.03;;;18.87;;
74791;SDS011;63319;46.046;17.802;2024-02-26T15:56:48;50.85;;;29.10;;
74791;SDS011;63319;46.046;17.802;2024-02-26T15:59:55;45.25;;;24.80;;
74791;SDS011;63319;46.046;17.802;2024-02-26T16:03:13;45.17;;;23.17;;
74791;SDS011;63319;46.046;17.802;2024-02-26T16:06:18;30.05;;;17.38;;
74791;SDS011;63319;46.046;17.802;2024-02-26T16:09:28;32.10;;;16.60;;
74791;SDS011;63319;46.046;17.802;2024-02-26T16:12:37;30.77;;;16.20;;
74791;SDS011;63319;46.046;17.802;2024-02-26T16:15:44;53.33;;;29.47;;
74791;SDS011;63319;46.046;17.802;2024-02-26T16:18:50;74.05;;;38.47;;
74791;SDS011;63319;46.046;17.802;2024-02-26T16:21:53;58.50;;;31.52;;
74791;SDS011;63319;46.046;17.802;2024-02-26T16:24:56;56.65;;;31.50;;
74791;SDS011;63319;46.046;17.802;2024-02-26T16:28:00;87.97;;;45.77;;
74791;SDS011;63319;46.046;17.802;2024-02-26T16:31:04;117.93;;;61.50;;
74791;SDS011;63319;46.046;17.802;2024-02-26T16:34:06;98.78;;;50.53;;
74791;SDS011;63319;46.046;17.802;2024-02-26T16:37:10;87.00;;;43.73;;
74791;SDS011;63319;46.046;17.802;2024-02-26T16:40:14;95.32;;;45.53;;
74791;SDS011;63319;46.046;17.802;2024-02-26T16:43:18;94.47;;;48.00;;
74791;SDS011;63319;46.046;17.802;2024-02-26T16:46:21;98.72;;;50.00;;
74791;SDS011;63319;46.046;17.802;2024-02-26T16:49:24;110.30;;;57.47;;
74791;SDS011;63319;46.046;17.802;2024-02-26T16:52:27;118.22;;;62.50;;
74791;SDS011;63319;46.046;17.802;2024-02-26T16:55:30;96.80;;;54.45;;
74791;SDS011;63319;46.046;17.802;2024-02-26T16:58:33;99.30;;;55.13;;
74791;SDS011;63319;46.046;17.802;2024-02-26T17:01:36;212.88;;;101.50;;
74791;SDS011;63319;46.046;17.802;2024-02-26T17:04:39;246.15;;;120.32;;
74791;SDS011;63319;46.046;17.802;2024-02-26T17:07:42;169.93;;;86.72;;
74791;SDS011;63319;46.046;17.802;2024-02-26T17:10:47;87.60;;;49.67;;
74791;SDS011;63319;46.046;17.802;2024-02-26T17:13:50;68.25;;;39.33;;
74791;SDS011;63319;46.046;17.802;2024-02-26T17:16:53;65.97;;;37.38;;
74791;SDS011;63319;46.046;17.802;2024-02-26T17:19:55;59.47;;;35.23;;
74791;SDS011;63319;46.046;17.802;2024-02-26T17:23:00;80.82;;;48.60;;
74791;SDS011;63319;46.046;17.802;2024-02-26T17:26:03;119.65;;;81.43;;
74791;SDS011;63319;46.046;17.802;2024-02-26T17:29:09;113.38;;;77.22;;
74791;SDS011;63319;46.046;17.802;2024-02-26T17:32:12;94.95;;;57.05;;
74791;SDS011;63319;46.046;17.802;2024-02-26T17:35:18;73.78;;;47.50;;
74791;SDS011;63319;46.046;17.802;2024-02-26T17:38:21;69.18;;;43.38;;
74791;SDS011;63319;46.046;17.802;2024-02-26T17:41:24;54.37;;;32.73;;
74791;SDS011;63319;46.046;17.802;2024-02-26T17:45:01;55.00;;;31.00;;
74791;SDS011;63319;46.046;17.802;2024-02-26T17:47:56;68.47;;;33.60;;
74791;SDS011;63319;46.046;17.802;2024-02-26T17:50:59;61.90;;;30.77;;
74791;SDS011;63319;46.046;17.802;2024-02-26T17:54:02;49.97;;;24.45;;
74791;SDS011;63319;46.046;17.802;2024-02-26T17:57:05;50.85;;;24.58;;